createdAt,value
2022-10-20T04:59:00.234Z,0.01
2022-10-20T05:01:30.236Z,0
2022-10-20T05:03:46.124Z,0.01
2022-10-20T05:13:35.625Z,0.02
2022-10-20T05:15:43.259Z,0.03
2022-10-20T05:18:39.902Z,0.05
2022-10-20T05:21:21.820Z,0.07
2022-10-20T05:24:14.308Z,0.1
2022-10-20T05:26:03.777Z,0.15
2022-10-20T05:28:03.399Z,0.21
2022-10-20T05:30:51.753Z,0.31
2022-10-20T05:33:25.902Z,0.51
2022-10-20T05:35:46.096Z,0.72
2022-10-20T05:37:51.950Z,1.17
2022-10-20T05:40:46.585Z,2.31
2022-10-20T05:43:27.166Z,3.96
2022-10-20T05:45:53.681Z,5.27
2022-10-20T05:48:05.483Z,5.98
2022-10-20T05:50:03.512Z,6.13
2022-10-20T05:52:50.165Z,6.05
2022-10-20T05:55:23.343Z,6.64
2022-10-20T05:57:40.787Z,7.85
2022-10-20T05:59:44.909Z,9.56
2022-10-20T06:02:38.432Z,12.88
2022-10-20T06:05:16.338Z,16.38
2022-10-20T06:07:40.880Z,20.35
2022-10-20T06:09:51.164Z,24.46
2022-10-20T06:12:49.771Z,29.27
2022-10-20T06:15:34.782Z,34.1
2022-10-20T06:18:05.499Z,38.91
2022-10-20T06:20:22.019Z,45.18
2022-10-20T06:22:24.501Z,51.36
2022-10-20T06:25:15.536Z,60.9
2022-10-20T06:27:52.441Z,65.52
2022-10-20T06:30:15.118Z,72.6
2022-10-20T06:32:23.720Z,76.9
2022-10-20T06:35:21.105Z,82.88
2022-10-20T06:38:04.250Z,86.24
2022-10-20T06:42:48.237Z,89.2
2022-10-20T06:44:48.811Z,91.68
2022-10-20T06:47:38.497Z,95.12
2022-10-20T06:50:13.669Z,95.92
2022-10-20T06:52:34.848Z,103
2022-10-20T06:54:41.581Z,112.28
2022-10-20T06:57:37.253Z,119.96
2022-10-20T07:00:18.677Z,124.88
2022-10-20T07:02:45.709Z,132.52
2022-10-20T07:04:58.429Z,128.92
2022-10-20T07:06:57.218Z,117.96
2022-10-20T07:09:44.675Z,125.68
2022-10-20T07:12:18.120Z,134.32
2022-10-20T07:14:37.201Z,142.2
2022-10-20T07:16:42.131Z,141.68
2022-10-20T07:19:35.977Z,137.88
2022-10-20T07:22:15.587Z,149.76
2022-10-20T07:24:40.882Z,154.56
2022-10-20T07:26:52.207Z,161.16
2022-10-20T07:29:52.234Z,184.9
2022-10-20T07:32:38.472Z,231.6
2022-10-20T07:35:09.721Z,265.8
2022-10-20T07:37:26.943Z,272
2022-10-20T07:39:30.235Z,296
2022-10-20T07:42:22.141Z,303.2
2022-10-20T07:44:59.999Z,300.6
2022-10-20T07:47:23.620Z,323
2022-10-20T07:49:45.036Z,322.9
2022-10-20T07:52:31.140Z,355
2022-10-20T07:55:32.185Z,330.5
2022-10-20T07:57:44.254Z,338.4
2022-10-20T07:59:59.533Z,350
2022-10-20T08:02:01.013Z,363.6
2022-10-20T08:04:51.049Z,353.9
2022-10-20T08:07:26.888Z,345.9
2022-10-20T08:09:48.648Z,344.9
2022-10-20T08:11:56.103Z,346
2022-10-20T08:14:52.216Z,361.9
2022-10-20T08:17:34.377Z,366.2
2022-10-20T08:20:05.608Z,374.2
2022-10-20T08:22:15.934Z,390
2022-10-20T08:24:15.520Z,402.8
2022-10-20T08:27:03.647Z,414.2
2022-10-20T08:29:18.446Z,412.4
2022-10-20T08:31:19.079Z,415.8
2022-10-20T08:34:08.177Z,420.9
2022-10-20T08:36:43.327Z,432.8
2022-10-20T08:39:05.294Z,463.8
2022-10-20T08:41:11.038Z,451.2
2022-10-20T08:44:06.581Z,473.4
2022-10-20T08:46:47.885Z,506.4
2022-10-20T08:49:14.488Z,473.4
2022-10-20T08:51:27.469Z,467.8
2022-10-20T08:53:26.278Z,475.6
2022-10-20T08:56:13.515Z,444.6
2022-10-20T08:58:46.646Z,440.6
2022-10-20T09:01:05.751Z,468.6
2022-10-20T09:03:10.669Z,449.9
2022-10-20T09:06:04.199Z,417.9
2022-10-20T09:08:43.705Z,428.9
2022-10-20T09:11:08.931Z,467.6
2022-10-20T09:13:19.896Z,468.6
2022-10-20T09:16:27.079Z,444.1
2022-10-20T09:19:05.197Z,420.9
2022-10-20T09:21:36.498Z,400.9
2022-10-20T09:23:53.606Z,437.4
2022-10-20T09:25:56.730Z,453.1
2022-10-20T09:29:08.828Z,501.2
2022-10-20T09:31:26.064Z,494.4
2022-10-20T09:33:49.280Z,455.6
2022-10-20T09:35:58.480Z,469.1
2022-10-20T09:38:56.265Z,463.2
2022-10-20T09:41:39.692Z,503
2022-10-20T09:44:09.312Z,467.8
2022-10-20T09:46:24.702Z,404.4
2022-10-20T09:48:26.175Z,446.8
2022-10-20T09:51:16.422Z,392.9
2022-10-20T09:53:51.961Z,418.7
2022-10-20T09:56:13.474Z,335.2
2022-10-20T09:58:21.008Z,390.8
2022-10-20T10:01:17.232Z,426
2022-10-20T10:03:59.039Z,605.7
2022-10-20T10:06:26.915Z,593.2
2022-10-20T10:08:40.600Z,540.8
2022-10-20T10:10:39.948Z,521.7
2022-10-20T10:13:28.155Z,442.5
2022-10-20T10:16:02.174Z,344.6
2022-10-20T10:18:21.980Z,282.4
2022-10-20T10:20:27.807Z,219.6
2022-10-20T10:23:22.214Z,225
2022-10-20T10:26:03.308Z,256.7
2022-10-20T10:28:28.249Z,286.3
2022-10-20T10:30:40.160Z,273.2
2022-10-20T10:32:37.781Z,308.5
2022-10-20T10:35:23.758Z,330.2
2022-10-20T10:37:56.091Z,288
2022-10-20T10:40:14.255Z,267.8
2022-10-20T10:42:18.014Z,259.2
2022-10-20T10:45:10.677Z,285.1
2022-10-20T10:47:49.109Z,290.8
2022-10-20T10:50:13.266Z,268.8
2022-10-20T10:52:23.581Z,248.7
2022-10-20T10:55:44.067Z,248.9
2022-10-20T10:58:06.851Z,257.2
2022-10-20T11:00:37.185Z,250.6
2022-10-20T11:02:53.523Z,250.8
2022-10-20T11:04:55.674Z,250.5
2022-10-20T11:07:46.361Z,257.1
2022-10-20T11:10:23.026Z,295.6
2022-10-20T11:12:45.461Z,332.8
2022-10-20T11:14:53.660Z,377.9
2022-10-20T11:17:50.612Z,443.6
2022-10-20T11:20:33.335Z,485.1
2022-10-20T11:23:01.866Z,517.7
2022-10-20T11:25:15.774Z,665.9
2022-10-20T11:27:16.089Z,763.5
2022-10-20T11:30:04.918Z,631.8
2022-10-20T11:32:39.581Z,591.3
2022-10-20T11:35:00.264Z,523.5
2022-10-20T11:37:06.661Z,464.8
2022-10-20T11:40:04.423Z,442
2022-10-20T11:42:42.670Z,461.7
2022-10-20T11:45:09.478Z,449.7
2022-10-20T11:47:22.128Z,443.5
2022-10-20T11:49:20.723Z,447.5
2022-10-20T11:52:07.875Z,435.6
2022-10-20T11:54:40.810Z,397.2
2022-10-20T11:56:59.537Z,371.5
2022-10-20T11:59:04.253Z,342.7
2022-10-20T12:01:57.515Z,293.1
2022-10-20T12:04:36.523Z,267.5
2022-10-20T12:07:01.479Z,254.3
2022-10-20T12:09:12.458Z,260.2
2022-10-20T12:12:11.632Z,244.6
2022-10-20T12:14:57.009Z,244.4
2022-10-20T12:17:27.884Z,226.8
2022-10-20T12:19:44.822Z,215.9
2022-10-20T12:21:47.909Z,215.6
2022-10-20T12:24:39.570Z,214.4
2022-10-20T12:27:16.909Z,203.6
2022-10-20T12:29:39.999Z,192.9
2022-10-20T12:31:51.423Z,150.84
2022-10-20T12:34:46.889Z,135.8
2022-10-20T12:37:30.346Z,129.64
2022-10-20T12:39:59.864Z,147.04
2022-10-20T12:42:15.106Z,154.68
2022-10-20T12:44:16.197Z,146.04
2022-10-20T12:47:05.997Z,154.88
2022-10-20T12:49:41.574Z,159.76
2022-10-20T12:52:02.934Z,161.08
2022-10-20T12:54:10.333Z,148.76
2022-10-20T12:57:06.242Z,137.08
2022-10-20T12:59:47.988Z,156.24
2022-10-20T13:02:15.553Z,168.4
2022-10-20T13:04:29.127Z,179.4
2022-10-20T13:06:28.416Z,143.16
2022-10-20T13:09:15.987Z,135.4
2022-10-20T13:11:50.019Z,142.72
2022-10-20T13:14:09.459Z,120.48
2022-10-20T13:16:14.859Z,119.56
2022-10-20T13:19:09.081Z,139.52
2022-10-20T13:21:49.812Z,159.8
2022-10-20T13:24:14.840Z,157.52
2022-10-20T13:26:26.603Z,151
2022-10-20T13:28:24.141Z,144
2022-10-20T13:31:10.271Z,146.32
2022-10-20T13:36:00.118Z,166.5
2022-10-20T13:38:03.862Z,169.1
2022-10-20T13:40:56.093Z,164.3
2022-10-20T13:43:34.383Z,160.76
2022-10-20T13:45:58.437Z,158.28
2022-10-20T13:48:08.518Z,145.4
2022-10-20T13:51:06.909Z,114.12
2022-10-20T13:53:51.330Z,99
2022-10-20T13:56:21.739Z,102.84
2022-10-20T13:58:37.551Z,115.08
2022-10-20T14:00:39.234Z,128.76
2022-10-20T14:03:29.775Z,130.84
2022-10-20T14:06:06.047Z,126.2
2022-10-20T14:08:28.577Z,119.48
2022-10-20T14:10:36.561Z,116.44
2022-10-20T14:13:33.205Z,118.04
2022-10-20T14:16:15.813Z,117.48
2022-10-20T14:18:44.310Z,115.08
2022-10-20T14:20:58.585Z,100.72
2022-10-20T14:22:58.902Z,87.4
2022-10-20T14:25:47.788Z,83.68
2022-10-20T14:28:22.425Z,84.96
2022-10-20T14:30:42.881Z,84.16
2022-10-20T14:32:49.308Z,85.44
2022-10-20T14:35:44.386Z,81.9
2022-10-20T14:38:25.238Z,78.42
2022-10-20T14:40:52.158Z,67.96
2022-10-20T14:43:04.758Z,59.44
2022-10-20T14:45:03.173Z,37.51
2022-10-20T14:47:50.490Z,43.88
2022-10-20T14:50:23.483Z,38.41
2022-10-20T14:52:41.995Z,30.31
2022-10-20T14:54:46.845Z,35.63
2022-10-20T14:57:40.384Z,41.32
2022-10-20T15:00:19.223Z,41.22
2022-10-20T15:02:44.121Z,36.64
2022-10-20T15:04:55.064Z,32.12
2022-10-20T15:07:54.551Z,29.79
2022-10-20T15:10:39.804Z,29.76
2022-10-20T15:13:11.080Z,33.43
2022-10-20T15:15:28.101Z,32.81
2022-10-20T15:17:30.888Z,30.13
2022-10-20T15:20:22.573Z,28.92
2022-10-20T15:22:59.936Z,24.81
2022-10-20T15:25:23.130Z,21.28
2022-10-20T15:27:32.361Z,20.84
2022-10-20T15:30:30.092Z,25.09
2022-10-20T15:33:13.531Z,26.32
2022-10-20T15:35:42.794Z,24.83
2022-10-20T15:37:58.102Z,23.31
2022-10-20T15:39:59.182Z,20.67
2022-10-20T15:42:48.811Z,19.01
2022-10-20T15:45:24.188Z,20.28
2022-10-20T15:47:45.669Z,22
2022-10-20T15:49:52.916Z,21.14
2022-10-20T15:52:48.897Z,15.65
2022-10-20T15:55:30.663Z,12.34
2022-10-20T15:57:58.203Z,10.5
2022-10-20T16:00:11.560Z,10.8
2022-10-20T16:02:10.902Z,12.4
2022-10-20T16:04:58.844Z,13.48
2022-10-20T16:07:32.524Z,10.99
2022-10-20T16:09:52.232Z,9
2022-10-20T16:11:57.693Z,7.62
2022-10-20T16:14:51.696Z,7.65
2022-10-20T16:17:31.753Z,7.23
2022-10-20T16:19:57.594Z,5.99
2022-10-20T16:22:09.208Z,5.19
2022-10-20T16:24:06.802Z,4.45
2022-10-20T16:26:52.998Z,3.52
2022-10-20T16:29:25.067Z,3.04
2022-10-20T16:31:42.578Z,2.67
2022-10-20T16:33:46.343Z,2.1
2022-10-20T16:36:38.243Z,1.32
2022-10-20T16:39:16.268Z,0.93
2022-10-20T16:41:40.315Z,0.65
2022-10-20T16:43:50.152Z,0.42
2022-10-20T16:46:48.703Z,0.24
2022-10-20T16:49:32.928Z,0.15
2022-10-20T16:52:03.174Z,0.1
2022-10-20T16:54:19.191Z,0.07
2022-10-20T16:56:21.284Z,0.05
2022-10-20T16:59:11.821Z,0.04
2022-10-20T17:01:48.205Z,0.03
2022-10-20T17:04:10.355Z,0.01
2022-10-20T19:27:07.981Z,0
2022-10-20T19:29:41.909Z,0.01
2022-10-20T19:46:46.851Z,0
2022-10-20T19:49:46.428Z,0.01
2022-10-20T19:52:31.808Z,0
2022-10-20T19:57:19.908Z,0.01
2022-10-20T20:02:14.411Z,0.02
2022-10-20T20:04:51.387Z,0.01
2022-10-20T20:17:34.940Z,0
2022-10-20T20:51:45.997Z,0.01
2022-10-20T20:53:51.739Z,0
